Time;durP1;ratioP1;P1;durP2;ratioP2;P2;SDS_P1;SDS_P2;PMS_P1;PMS_P2;Temp;Humidity;BMP_temperature;BMP_pressure;BME280_temperature;BME280_humidity;BME280_pressure;Samples;Min_cycle;Max_cycle;Signal;HPM_P1;HPM_P2
2023/09/13 00:02:20;;;;;;;0.10;0.10;;;;;;;;;;5019317;28;20132;-92
2023/09/13 00:04:46;;;;;;;0.10;0.10;;;;;;;;;;5022531;28;20120;-92
2023/09/13 00:07:12;;;;;;;0.10;0.10;;;;;;;;;;5025670;28;20034;-92
2023/09/13 00:09:41;;;;;;;0.10;0.10;;;;;;;;;;5022420;28;20183;-93
2023/09/13 00:12:07;;;;;;;0.10;0.10;;;;;;;;;;5017872;28;20052;-91
2023/09/13 00:14:34;;;;;;;0.10;0.10;;;;;;;;;;5017351;28;20488;-90
2023/09/13 00:17:00;;;;;;;0.10;0.10;;;;;;;;;;5017162;28;20040;-90
2023/09/13 00:19:30;;;;;;;0.10;0.10;;;;;;;;;;4987494;28;1332075;-90
2023/09/13 00:21:56;;;;;;;0.20;0.20;;;;;;;;;;5018608;28;20053;-90
2023/09/13 00:24:22;;;;;;;0.10;0.10;;;;;;;;;;5034770;28;20056;-91
2023/09/13 00:26:48;;;;;;;0.10;0.10;;;;;;;;;;5019145;28;20038;-91
2023/09/13 00:29:15;;;;;;;0.10;0.10;;;;;;;;;;5018198;28;20052;-90
2023/09/13 00:31:41;;;;;;;0.10;0.10;;;;;;;;;;5017892;28;20037;-88
2023/09/13 00:34:09;;;;;;;0.10;0.10;;;;;;;;;;5017969;28;20053;-89
2023/09/13 00:36:35;;;;;;;0.10;0.10;;;;;;;;;;5034555;28;20045;-89
2023/09/13 00:39:04;;;;;;;0.10;0.10;;;;;;;;;;5018009;28;20045;-88
2023/09/13 00:41:32;;;;;;;0.10;0.10;;;;;;;;;;5017944;28;20152;-88
2023/09/13 00:43:57;;;;;;;0.10;0.10;;;;;;;;;;5017533;28;20079;-89
2023/09/13 00:46:24;;;;;;;0.10;0.10;;;;;;;;;;5017603;28;20128;-88
2023/09/13 00:48:50;;;;;;;0.10;0.10;;;;;;;;;;5017549;28;20095;-88
2023/09/13 00:51:16;;;;;;;0.10;0.10;;;;;;;;;;5017517;28;20033;-89
2023/09/13 00:53:42;;;;;;;0.10;0.10;;;;;;;;;;5017499;28;20132;-90
2023/09/13 00:56:08;;;;;;;0.10;0.10;;;;;;;;;;5034218;28;20107;-91
2023/09/13 00:58:34;;;;;;;0.10;0.10;;;;;;;;;;5017830;28;20042;-90
2023/09/13 01:01:00;;;;;;;0.10;0.10;;;;;;;;;;5017627;28;20042;-90
2023/09/13 01:03:27;;;;;;;0.10;0.10;;;;;;;;;;5017407;28;20050;-90
2023/09/13 01:05:54;;;;;;;0.10;0.10;;;;;;;;;;5034021;28;20049;-90
2023/09/13 01:08:20;;;;;;;0.10;0.10;;;;;;;;;;5017570;28;20041;-89
2023/09/13 01:10:47;;;;;;;0.10;0.10;;;;;;;;;;5016804;28;20033;-91
2023/09/13 01:13:14;;;;;;;0.10;0.10;;;;;;;;;;5017513;28;20052;-91
2023/09/13 01:15:57;;;;;;;0.10;0.10;;;;;;;;;;5017731;28;20037;-90
2023/09/13 01:18:28;;;;;;;0.10;0.10;;;;;;;;;;5017187;28;20041;-90
2023/09/13 01:21:07;;;;;;;0.10;0.10;;;;;;;;;;5017236;28;20049;-90
2023/09/13 01:23:51;;;;;;;0.10;0.10;;;;;;;;;;5033511;28;20508;-90
2023/09/13 01:26:17;;;;;;;0.10;0.10;;;;;;;;;;5033508;28;20037;-90
2023/09/13 01:28:46;;;;;;;0.10;0.10;;;;;;;;;;5033677;28;20041;-91
2023/09/13 01:31:12;;;;;;;0.10;0.10;;;;;;;;;;5017044;28;20047;-89
2023/09/13 01:33:38;;;;;;;0.10;0.10;;;;;;;;;;5017433;28;20120;-89
2023/09/13 01:36:07;;;;;;;0.10;0.10;;;;;;;;;;5016859;28;20041;-89
2023/09/13 01:38:33;;;;;;;0.10;0.10;;;;;;;;;;5017132;28;20045;-90
2023/09/13 01:41:09;;;;;;;0.10;0.10;;;;;;;;;;5033227;28;20049;-89
2023/09/13 01:43:34;;;;;;;0.10;0.10;;;;;;;;;;5016860;28;20038;-90
2023/09/13 01:46:00;;;;;;;0.10;0.10;;;;;;;;;;5017093;28;20052;-91
2023/09/13 01:48:26;;;;;;;0.10;0.10;;;;;;;;;;5017550;28;20061;-93
2023/09/13 01:50:53;;;;;;;0.10;0.10;;;;;;;;;;5019269;28;20120;-91
2023/09/13 01:53:19;;;;;;;0.10;0.10;;;;;;;;;;5016775;28;20048;-90
2023/09/13 01:55:45;;;;;;;0.10;0.10;;;;;;;;;;5016970;28;20054;-90
2023/09/13 01:58:11;;;;;;;0.10;0.10;;;;;;;;;;5016382;28;20124;-89
2023/09/13 02:00:37;;;;;;;0.10;0.10;;;;;;;;;;5016442;28;20041;-90
2023/09/13 02:03:03;;;;;;;0.10;0.10;;;;;;;;;;5016346;28;20631;-89
2023/09/13 02:05:29;;;;;;;0.10;0.10;;;;;;;;;;5016357;28;20041;-89
2023/09/13 02:07:55;;;;;;;0.10;0.10;;;;;;;;;;5032547;28;20374;-89
2023/09/13 02:10:21;;;;;;;0.10;0.10;;;;;;;;;;5032401;28;20440;-88
2023/09/13 02:12:47;;;;;;;0.10;0.10;;;;;;;;;;5016470;28;20051;-89
2023/09/13 02:15:12;;;;;;;0.10;0.10;;;;;;;;;;5016342;28;20532;-89
2023/09/13 02:17:39;;;;;;;0.10;0.10;;;;;;;;;;5016182;28;20485;-88
2023/09/13 02:20:05;;;;;;;0.10;0.10;;;;;;;;;;5032240;28;20232;-89
2023/09/13 02:22:31;;;;;;;0.15;0.15;;;;;;;;;;5014958;28;20056;-88
2023/09/13 02:24:57;;;;;;;0.10;0.10;;;;;;;;;;5015846;28;21084;-88
2023/09/13 02:27:23;;;;;;;0.10;0.10;;;;;;;;;;5015798;28;20107;-90
2023/09/13 02:29:49;;;;;;;0.10;0.10;;;;;;;;;;5032260;28;20051;-89
2023/09/13 02:32:15;;;;;;;0.10;0.10;;;;;;;;;;5016175;28;20128;-89
2023/09/13 02:34:44;;;;;;;0.10;0.10;;;;;;;;;;5016043;28;20041;-89
2023/09/13 02:37:10;;;;;;;0.10;0.10;;;;;;;;;;5015827;28;20069;-89
2023/09/13 02:39:37;;;;;;;0.10;0.10;;;;;;;;;;5015562;28;20401;-89
2023/09/13 02:42:03;;;;;;;0.10;0.10;;;;;;;;;;5015806;28;20528;-90
2023/09/13 02:44:30;;;;;;;0.10;0.10;;;;;;;;;;5015657;28;20041;-89
2023/09/13 02:46:56;;;;;;;0.10;0.10;;;;;;;;;;5015617;28;20033;-90
2023/09/13 02:49:23;;;;;;;0.10;0.10;;;;;;;;;;5015611;28;20048;-90
2023/09/13 02:51:51;;;;;;;0.10;0.10;;;;;;;;;;5015552;28;20064;-89
2023/09/13 02:54:17;;;;;;;0.10;0.10;;;;;;;;;;5015534;28;20108;-89
2023/09/13 02:56:42;;;;;;;0.10;0.10;;;;;;;;;;5015554;28;20489;-89
2023/09/13 02:59:08;;;;;;;0.10;0.10;;;;;;;;;;5015499;28;20504;-88
2023/09/13 03:01:34;;;;;;;0.10;0.10;;;;;;;;;;5031528;28;20125;-88
2023/09/13 03:04:00;;;;;;;0.10;0.10;;;;;;;;;;5031552;28;20311;-89
2023/09/13 03:06:26;;;;;;;0.20;0.20;;;;;;;;;;5015090;28;20448;-90
2023/09/13 03:08:52;;;;;;;0.10;0.10;;;;;;;;;;5015958;28;20033;-90
2023/09/13 03:11:18;;;;;;;0.10;0.10;;;;;;;;;;5015373;28;20048;-89
2023/09/13 03:13:45;;;;;;;0.10;0.10;;;;;;;;;;5015046;28;20496;-91
2023/09/13 03:16:14;;;;;;;0.10;0.10;;;;;;;;;;5015324;28;20041;-90
2023/09/13 03:18:40;;;;;;;0.10;0.10;;;;;;;;;;5015819;28;20427;-90
2023/09/13 03:21:08;;;;;;;0.10;0.10;;;;;;;;;;5014954;28;20061;-91
2023/09/13 03:23:34;;;;;;;0.10;0.10;;;;;;;;;;5015317;28;20084;-91
2023/09/13 03:26:00;;;;;;;0.10;0.10;;;;;;;;;;5015042;28;20077;-89
2023/09/13 03:28:26;;;;;;;0.10;0.10;;;;;;;;;;5015122;28;20095;-89
2023/09/13 03:30:52;;;;;;;0.10;0.10;;;;;;;;;;5031349;28;20162;-90
2023/09/13 03:33:17;;;;;;;0.10;0.10;;;;;;;;;;5014784;28;20478;-89
2023/09/13 03:35:43;;;;;;;0.10;0.10;;;;;;;;;;5015117;28;20046;-90
2023/09/13 03:38:09;;;;;;;0.10;0.10;;;;;;;;;;5031706;28;20047;-91
2023/09/13 03:40:35;;;;;;;0.10;0.10;;;;;;;;;;5016334;28;20045;-90
2023/09/13 03:43:01;;;;;;;0.10;0.10;;;;;;;;;;5016160;28;20045;-91
2023/09/13 03:45:27;;;;;;;0.10;0.10;;;;;;;;;;5016235;28;20048;-91
2023/09/13 03:47:53;;;;;;;0.20;0.20;;;;;;;;;;5016189;28;20045;-90
2023/09/13 03:50:19;;;;;;;0.10;0.10;;;;;;;;;;5015956;28;20041;-90
2023/09/13 03:52:45;;;;;;;0.10;0.10;;;;;;;;;;5015087;28;20052;-91
2023/09/13 03:55:11;;;;;;;0.10;0.10;;;;;;;;;;5014719;28;20439;-90
2023/09/13 03:57:37;;;;;;;0.10;0.10;;;;;;;;;;5015323;28;20048;-91
2023/09/13 04:00:10;;;;;;;0.10;0.10;;;;;;;;;;5014986;28;20081;-91
2023/09/13 04:02:36;;;;;;;0.10;0.10;;;;;;;;;;5015938;28;20094;-91
2023/09/13 04:05:02;;;;;;;0.10;0.10;;;;;;;;;;5014467;28;20139;-91
2023/09/13 04:07:28;;;;;;;0.10;0.10;;;;;;;;;;5014958;28;20038;-91
2023/09/13 04:09:54;;;;;;;0.10;0.10;;;;;;;;;;5014780;28;20044;-91
2023/09/13 04:12:20;;;;;;;0.10;0.10;;;;;;;;;;5014520;28;20172;-90
2023/09/13 04:14:46;;;;;;;0.10;0.10;;;;;;;;;;5014461;28;20033;-91
2023/09/13 04:17:12;;;;;;;0.10;0.10;;;;;;;;;;5014238;28;20068;-91
2023/09/13 04:19:38;;;;;;;0.10;0.10;;;;;;;;;;5014400;28;20064;-91
2023/09/13 04:22:04;;;;;;;0.10;0.10;;;;;;;;;;5014345;28;20550;-90
2023/09/13 04:24:30;;;;;;;0.10;0.10;;;;;;;;;;5014358;28;20038;-90
2023/09/13 04:26:56;;;;;;;0.10;0.10;;;;;;;;;;5014774;28;20042;-90
2023/09/13 04:29:22;;;;;;;0.10;0.10;;;;;;;;;;5030664;28;20121;-90
2023/09/13 04:31:48;;;;;;;0.10;0.10;;;;;;;;;;5014716;28;20076;-91
2023/09/13 04:34:14;;;;;;;0.10;0.10;;;;;;;;;;5014515;28;20041;-91
2023/09/13 04:36:40;;;;;;;0.10;0.10;;;;;;;;;;5014291;28;20392;-90
2023/09/13 04:39:06;;;;;;;0.10;0.10;;;;;;;;;;5013994;28;20037;-90
2023/09/13 04:41:32;;;;;;;0.10;0.10;;;;;;;;;;5013937;28;20073;-91
2023/09/13 04:43:58;;;;;;;0.10;0.10;;;;;;;;;;5030241;28;20049;-88
2023/09/13 04:46:24;;;;;;;0.00;0.00;;;;;;;;;;5015332;28;20128;-86
2023/09/13 04:48:50;;;;;;;0.10;0.10;;;;;;;;;;5034261;28;20187;-87
2023/09/13 04:51:16;;;;;;;0.10;0.10;;;;;;;;;;5034011;28;20037;-87
2023/09/13 04:53:42;;;;;;;0.10;0.10;;;;;;;;;;5017321;28;20067;-88
2023/09/13 04:56:08;;;;;;;0.10;0.10;;;;;;;;;;5017632;28;20118;-87
2023/09/13 04:58:34;;;;;;;0.10;0.10;;;;;;;;;;5017386;28;20045;-87
2023/09/13 05:01:00;;;;;;;0.10;0.10;;;;;;;;;;5017216;28;20044;-87
2023/09/13 05:03:26;;;;;;;0.10;0.10;;;;;;;;;;5017174;28;20048;-87
2023/09/13 05:05:52;;;;;;;0.10;0.10;;;;;;;;;;5017483;28;20056;-86
2023/09/13 05:08:18;;;;;;;0.10;0.10;;;;;;;;;;5033762;28;20037;-87
2023/09/13 05:10:45;;;;;;;0.10;0.10;;;;;;;;;;5017134;28;20048;-86
2023/09/13 05:13:11;;;;;;;0.10;0.10;;;;;;;;;;5017234;28;20111;-86
2023/09/13 05:15:44;;;;;;;0.10;0.10;;;;;;;;;;5016910;28;20041;-86
2023/09/13 05:18:10;;;;;;;0.10;0.10;;;;;;;;;;5017017;28;20050;-86
2023/09/13 05:20:36;;;;;;;0.10;0.10;;;;;;;;;;5016860;28;20053;-86
2023/09/13 05:23:03;;;;;;;0.10;0.10;;;;;;;;;;5016947;28;20041;-85
2023/09/13 05:25:29;;;;;;;0.10;0.10;;;;;;;;;;5016753;28;20489;-86
2023/09/13 05:27:55;;;;;;;0.10;0.10;;;;;;;;;;5016752;28;20132;-87
2023/09/13 05:30:21;;;;;;;0.10;0.10;;;;;;;;;;5033277;28;20041;-88
2023/09/13 05:32:49;;;;;;;0.10;0.10;;;;;;;;;;5033168;28;20213;-87
2023/09/13 05:35:16;;;;;;;0.10;0.10;;;;;;;;;;5033023;28;20480;-88
2023/09/13 05:37:43;;;;;;;0.10;0.10;;;;;;;;;;5032972;28;20048;-87
2023/09/13 05:40:09;;;;;;;0.10;0.10;;;;;;;;;;5033116;28;20493;-87
2023/09/13 05:42:35;;;;;;;0.10;0.10;;;;;;;;;;5032723;28;20038;-86
2023/09/13 05:45:01;;;;;;;0.20;0.20;;;;;;;;;;5016684;28;20183;-86
2023/09/13 05:47:27;;;;;;;0.10;0.10;;;;;;;;;;5016462;28;20051;-86
2023/09/13 05:49:53;;;;;;;0.10;0.10;;;;;;;;;;5032926;28;20471;-85
2023/09/13 05:52:19;;;;;;;0.10;0.10;;;;;;;;;;5031457;28;20037;-86
2023/09/13 05:54:45;;;;;;;0.10;0.10;;;;;;;;;;5032930;28;20084;-86
2023/09/13 05:57:11;;;;;;;0.10;0.10;;;;;;;;;;5015298;28;20054;-86
2023/09/13 05:59:39;;;;;;;0.10;0.10;;;;;;;;;;5032614;28;20049;-86
2023/09/13 06:02:06;;;;;;;0.10;0.10;;;;;;;;;;5032580;28;20045;-85
2023/09/13 06:04:32;;;;;;;0.10;0.10;;;;;;;;;;5032382;28;20044;-85
2023/09/13 06:06:58;;;;;;;0.10;0.10;;;;;;;;;;5032538;28;20112;-84
2023/09/13 06:09:24;;;;;;;0.10;0.10;;;;;;;;;;5032433;28;20041;-84
2023/09/13 06:11:50;;;;;;;0.10;0.10;;;;;;;;;;5032665;28;20037;-84
2023/09/13 06:14:18;;;;;;;0.10;0.10;;;;;;;;;;5015863;28;20037;-84
2023/09/13 06:16:44;;;;;;;0.10;0.10;;;;;;;;;;5033507;28;20038;-84
2023/09/13 06:19:10;;;;;;;0.10;0.10;;;;;;;;;;5032052;28;20041;-84
2023/09/13 06:21:36;;;;;;;0.10;0.10;;;;;;;;;;5032108;28;20049;-84
2023/09/13 06:24:02;;;;;;;0.10;0.10;;;;;;;;;;5033306;28;20046;-84
2023/09/13 06:26:28;;;;;;;0.20;0.20;;;;;;;;;;5031975;28;20405;-83
2023/09/13 06:28:54;;;;;;;0.10;0.10;;;;;;;;;;5032157;28;20037;-84
2023/09/13 06:31:20;;;;;;;0.00;0.00;;;;;;;;;;5015666;28;20443;-85
2023/09/13 06:33:46;;;;;;;0.10;0.10;;;;;;;;;;5015735;28;20037;-84
2023/09/13 06:36:12;;;;;;;0.10;0.10;;;;;;;;;;5015540;28;20087;-85
2023/09/13 06:38:38;;;;;;;0.10;0.10;;;;;;;;;;5031865;28;20049;-86
2023/09/13 06:41:04;;;;;;;0.10;0.10;;;;;;;;;;5015389;28;20041;-86
2023/09/13 06:43:30;;;;;;;0.10;0.10;;;;;;;;;;5015231;28;20381;-85
2023/09/13 06:45:56;;;;;;;0.10;0.10;;;;;;;;;;5033139;28;20037;-86
2023/09/13 06:48:23;;;;;;;0.10;0.10;;;;;;;;;;5032106;28;20084;-86
2023/09/13 06:50:49;;;;;;;0.10;0.10;;;;;;;;;;5015579;28;20045;-86
2023/09/13 06:53:14;;;;;;;0.10;0.10;;;;;;;;;;5031841;28;20041;-86
2023/09/13 06:55:40;;;;;;;0.10;0.10;;;;;;;;;;5015008;28;20041;-87
2023/09/13 06:58:07;;;;;;;0.10;0.10;;;;;;;;;;5015417;28;20052;-87
2023/09/13 07:00:33;;;;;;;0.10;0.10;;;;;;;;;;4998731;28;20098;-86
2023/09/13 07:02:59;;;;;;;0.10;0.10;;;;;;;;;;5014954;28;20128;-86
2023/09/13 07:05:25;;;;;;;0.10;0.10;;;;;;;;;;5015386;28;20179;-85
2023/09/13 07:07:51;;;;;;;0.10;0.10;;;;;;;;;;5015300;28;20446;-86
2023/09/13 07:10:17;;;;;;;0.10;0.10;;;;;;;;;;5030968;28;20116;-87
2023/09/13 07:12:44;;;;;;;0.10;0.10;;;;;;;;;;5014972;28;20515;-86
2023/09/13 07:15:10;;;;;;;0.10;0.10;;;;;;;;;;5032547;28;20201;-87
2023/09/13 07:17:36;;;;;;;0.10;0.10;;;;;;;;;;5014801;28;20504;-86
2023/09/13 07:20:04;;;;;;;0.10;0.10;;;;;;;;;;5014521;28;20120;-86
2023/09/13 07:22:31;;;;;;;0.30;0.30;;;;;;;;;;5014761;28;20133;-86
2023/09/13 07:24:57;;;;;;;0.10;0.10;;;;;;;;;;5014834;28;20045;-86
2023/09/13 07:27:23;;;;;;;0.10;0.10;;;;;;;;;;5032259;28;20044;-86
2023/09/13 07:29:49;;;;;;;0.10;0.10;;;;;;;;;;5014733;28;20137;-86
2023/09/13 07:32:15;;;;;;;0.10;0.10;;;;;;;;;;5031109;28;20045;-86
2023/09/13 07:34:41;;;;;;;0.10;0.10;;;;;;;;;;5015281;28;20041;-88
2023/09/13 07:37:09;;;;;;;0.20;0.20;;;;;;;;;;5017775;28;20124;-86
2023/09/13 07:39:36;;;;;;;0.32;0.32;;;;;;;;;;5031539;28;20111;-88
2023/09/13 07:42:03;;;;;;;0.10;0.10;;;;;;;;;;5014730;28;20042;-89
2023/09/13 07:44:32;;;;;;;0.10;0.10;;;;;;;;;;5015821;28;20060;-91
2023/09/13 07:46:58;;;;;;;0.10;0.10;;;;;;;;;;4998626;28;20041;-89
2023/09/13 07:49:25;;;;;;;0.10;0.10;;;;;;;;;;4998213;28;20079;-89
2023/09/13 07:51:51;;;;;;;0.10;0.10;;;;;;;;;;5014376;28;20085;-90
2023/09/13 07:54:17;;;;;;;0.10;0.10;;;;;;;;;;4998023;28;20033;-90
2023/09/13 07:56:43;;;;;;;0.10;0.10;;;;;;;;;;5014396;28;20033;-89
2023/09/13 07:59:13;;;;;;;0.10;0.10;;;;;;;;;;5014484;28;20044;-89
2023/09/13 08:01:39;;;;;;;0.10;0.10;;;;;;;;;;4998458;28;20052;-90
2023/09/13 08:04:05;;;;;;;0.10;0.10;;;;;;;;;;5030749;28;20120;-90
2023/09/13 08:06:32;;;;;;;0.10;0.10;;;;;;;;;;4997812;28;20144;-88
2023/09/13 08:08:58;;;;;;;0.10;0.10;;;;;;;;;;5030618;28;20042;-90
2023/09/13 08:11:24;;;;;;;0.10;0.10;;;;;;;;;;4996816;28;20036;-89
2023/09/13 08:13:50;;;;;;;0.10;0.10;;;;;;;;;;5014080;28;20124;-89
2023/09/13 08:16:16;;;;;;;0.10;0.10;;;;;;;;;;4998104;28;20041;-90
2023/09/13 08:18:42;;;;;;;0.10;0.10;;;;;;;;;;4998273;28;20444;-90
2023/09/13 08:21:08;;;;;;;0.10;0.10;;;;;;;;;;4999031;28;20057;-89
2023/09/13 08:23:35;;;;;;;0.10;0.10;;;;;;;;;;5018602;28;20048;-88
2023/09/13 08:26:01;;;;;;;0.10;0.10;;;;;;;;;;5018589;28;20041;-90
2023/09/13 08:28:27;;;;;;;0.10;0.10;;;;;;;;;;5018118;28;20033;-89
2023/09/13 08:30:53;;;;;;;0.10;0.10;;;;;;;;;;5001908;28;20037;-89
2023/09/13 08:33:19;;;;;;;0.10;0.10;;;;;;;;;;5034362;28;20481;-89
2023/09/13 08:35:47;;;;;;;0.10;0.10;;;;;;;;;;5034071;28;20403;-89
2023/09/13 08:38:13;;;;;;;0.10;0.10;;;;;;;;;;5001718;28;20056;-88
2023/09/13 08:40:45;;;;;;;0.10;0.10;;;;;;;;;;5017707;28;20041;-87
2023/09/13 08:43:12;;;;;;;;;;;;;;;;;;5018047;28;20077;-87
2023/09/13 08:45:38;;;;;;;0.10;0.10;;;;;;;;;;5034118;28;19917;-89
2023/09/13 08:48:05;;;;;;;0.10;0.10;;;;;;;;;;5001214;28;20037;-89
2023/09/13 08:50:31;;;;;;;0.10;0.10;;;;;;;;;;5001518;28;20076;-87
2023/09/13 08:53:01;;;;;;;0.10;0.10;;;;;;;;;;5001071;28;20044;-87
2023/09/13 08:55:27;;;;;;;0.10;0.10;;;;;;;;;;5017440;28;20051;-87
2023/09/13 08:57:53;;;;;;;0.10;0.10;;;;;;;;;;5017419;28;20037;-88
2023/09/13 09:00:19;;;;;;;0.10;0.10;;;;;;;;;;5033825;28;20045;-87
2023/09/13 09:02:45;;;;;;;0.10;0.10;;;;;;;;;;5017094;28;20077;-87
2023/09/13 09:05:12;;;;;;;0.10;0.10;;;;;;;;;;5000912;28;20072;-88
2023/09/13 09:07:39;;;;;;;0.10;0.10;;;;;;;;;;5017390;28;20041;-88
2023/09/13 09:10:11;;;;;;;0.10;0.10;;;;;;;;;;5001279;28;20365;-87
2023/09/13 09:12:37;;;;;;;0.10;0.10;;;;;;;;;;5001435;28;20041;-87
2023/09/13 09:15:03;;;;;;;0.13;0.13;;;;;;;;;;5000693;28;20084;-87
2023/09/13 09:17:29;;;;;;;0.10;0.10;;;;;;;;;;5033504;28;20041;-87
2023/09/13 09:19:55;;;;;;;0.10;0.10;;;;;;;;;;5033192;28;20045;-87
2023/09/13 09:22:21;;;;;;;0.10;0.10;;;;;;;;;;5000455;28;20053;-87
2023/09/13 09:24:47;;;;;;;0.10;0.10;;;;;;;;;;5000547;28;20037;-86
2023/09/13 09:27:13;;;;;;;0.10;0.10;;;;;;;;;;5033265;28;20041;-86
2023/09/13 09:29:39;;;;;;;0.28;0.20;;;;;;;;;;5033333;28;20397;-87
2023/09/13 09:32:08;;;;;;;0.10;0.10;;;;;;;;;;5016418;28;20049;-86
2023/09/13 09:34:35;;;;;;;0.20;0.20;;;;;;;;;;5016968;28;20129;-86
2023/09/13 09:37:06;;;;;;;0.08;0.08;;;;;;;;;;5016993;28;20045;-88
2023/09/13 09:39:35;;;;;;;0.10;0.10;;;;;;;;;;5000930;28;20370;-86
2023/09/13 09:42:01;;;;;;;0.10;0.10;;;;;;;;;;5033139;28;20067;-87
2023/09/13 09:44:30;;;;;;;0.10;0.10;;;;;;;;;;5033154;28;20488;-86
2023/09/13 09:46:56;;;;;;;1.75;0.65;;;;;;;;;;5016706;28;20046;-86
2023/09/13 09:49:22;;;;;;;0.10;0.10;;;;;;;;;;5000231;28;20389;-86
2023/09/13 09:51:48;;;;;;;0.10;0.10;;;;;;;;;;5032911;28;20044;-86
2023/09/13 09:54:14;;;;;;;0.10;0.10;;;;;;;;;;5016311;28;20037;-86
2023/09/13 09:56:41;;;;;;;0.10;0.10;;;;;;;;;;5016213;28;20033;-87
2023/09/13 09:59:06;;;;;;;0.10;0.10;;;;;;;;;;5016350;28;20045;-87
2023/09/13 10:01:32;;;;;;;0.10;0.10;;;;;;;;;;5016358;28;20051;-87
2023/09/13 10:04:11;;;;;;;0.10;0.10;;;;;;;;;;5032489;28;20493;-87
2023/09/13 10:06:37;;;;;;;0.10;0.10;;;;;;;;;;5016120;28;20045;-87
2023/09/13 10:09:06;;;;;;;0.10;0.10;;;;;;;;;;5032536;28;20059;-88
2023/09/13 10:11:32;;;;;;;0.10;0.10;;;;;;;;;;5033202;28;20063;-92
2023/09/13 10:13:58;;;;;;;0.10;0.10;;;;;;;;;;5016066;28;20487;-89
2023/09/13 10:16:29;;;;;;;0.10;0.10;;;;;;;;;;5000248;28;20077;-90
2023/09/13 10:18:55;;;;;;;0.10;0.10;;;;;;;;;;5017100;28;20488;-91
2023/09/13 10:21:24;;;;;;;0.10;0.10;;;;;;;;;;5016638;28;20049;-89
2023/09/13 10:23:52;;;;;;;0.10;0.10;;;;;;;;;;5015933;28;20049;-91
2023/09/13 10:26:20;;;;;;;0.20;0.20;;;;;;;;;;4999753;28;20160;-87
2023/09/13 10:28:46;;;;;;;0.20;0.20;;;;;;;;;;4999862;28;20087;-87
2023/09/13 10:31:15;;;;;;;0.10;0.10;;;;;;;;;;5015697;28;20064;-87
2023/09/13 10:33:43;;;;;;;0.10;0.10;;;;;;;;;;4999555;28;20385;-87
2023/09/13 10:36:10;;;;;;;0.10;0.10;;;;;;;;;;5016000;28;20041;-87
2023/09/13 10:38:38;;;;;;;0.10;0.10;;;;;;;;;;5015630;28;20049;-85
2023/09/13 10:41:06;;;;;;;0.10;0.10;;;;;;;;;;5015744;28;20488;-85
2023/09/13 10:43:32;;;;;;;0.10;0.10;;;;;;;;;;5014858;28;20049;-86
2023/09/13 10:45:58;;;;;;;0.10;0.10;;;;;;;;;;5015370;28;20044;-85
2023/09/13 10:48:24;;;;;;;0.10;0.10;;;;;;;;;;4999104;28;20041;-85
2023/09/13 10:50:51;;;;;;;0.10;0.10;;;;;;;;;;4999183;28;20151;-85
2023/09/13 10:53:19;;;;;;;0.10;0.10;;;;;;;;;;5015212;28;20041;-85
2023/09/13 10:55:45;;;;;;;0.10;0.10;;;;;;;;;;5015171;28;20049;-86
2023/09/13 10:58:12;;;;;;;0.10;0.10;;;;;;;;;;5015224;28;20616;-85
2023/09/13 11:00:39;;;;;;;0.10;0.10;;;;;;;;;;4999189;28;20050;-89
2023/09/13 11:03:05;;;;;;;0.10;0.10;;;;;;;;;;5015193;28;20052;-89
2023/09/13 11:05:31;;;;;;;0.10;0.10;;;;;;;;;;5015430;28;20427;-89
2023/09/13 11:07:57;;;;;;;0.10;0.10;;;;;;;;;;5015258;28;20069;-88
2023/09/13 11:10:23;;;;;;;0.10;0.10;;;;;;;;;;5015262;28;20147;-90
2023/09/13 11:12:50;;;;;;;0.17;0.17;;;;;;;;;;5031748;28;20051;-89
2023/09/13 11:15:20;;;;;;;0.10;0.10;;;;;;;;;;4999498;28;20048;-89
2023/09/13 11:17:46;;;;;;;0.10;0.10;;;;;;;;;;5015560;28;20041;-90
2023/09/13 11:20:27;;;;;;;0.13;0.13;;;;;;;;;;4999091;28;20061;-89
2023/09/13 11:23:01;;;;;;;0.10;0.10;;;;;;;;;;5016283;28;20053;-92
2023/09/13 11:25:31;;;;;;;0.60;0.22;;;;;;;;;;4999497;28;20103;-89
2023/09/13 11:27:57;;;;;;;0.10;0.10;;;;;;;;;;4999804;28;20107;-88
2023/09/13 11:30:43;;;;;;;0.13;0.13;;;;;;;;;;5015018;28;20466;-88
2023/09/13 11:33:09;;;;;;;0.10;0.10;;;;;;;;;;5014497;28;20390;-87
2023/09/13 11:35:35;;;;;;;0.10;0.10;;;;;;;;;;5031196;28;20091;-88
2023/09/13 11:38:01;;;;;;;0.35;0.30;;;;;;;;;;5014957;28;20369;-88
2023/09/13 11:40:27;;;;;;;0.10;0.10;;;;;;;;;;5030952;28;20041;-88
2023/09/13 11:42:53;;;;;;;0.20;0.20;;;;;;;;;;5014536;28;20077;-88
2023/09/13 11:45:19;;;;;;;0.10;0.10;;;;;;;;;;5030835;28;20046;-87
2023/09/13 11:47:45;;;;;;;0.10;0.10;;;;;;;;;;5014655;28;20473;-89
2023/09/13 11:50:12;;;;;;;0.10;0.10;;;;;;;;;;5014465;28;20073;-87
2023/09/13 11:53:13;;;;;;;0.10;0.10;;;;;;;;;;5014969;28;20038;-87
2023/09/13 11:55:39;;;;;;;0.10;0.10;;;;;;;;;;4995782;28;20057;-89
2023/09/13 11:58:07;;;;;;;0.10;0.10;;;;;;;;;;5018638;28;20052;-89
2023/09/13 12:00:34;;;;;;;0.10;0.10;;;;;;;;;;5032913;28;20077;-89
2023/09/13 12:03:00;;;;;;;0.20;0.20;;;;;;;;;;5002274;28;20102;-89
2023/09/13 12:05:25;;;;;;;0.10;0.10;;;;;;;;;;5019008;28;20502;-89
2023/09/13 12:07:52;;;;;;;0.10;0.10;;;;;;;;;;5018575;28;20060;-89
2023/09/13 12:10:18;;;;;;;0.10;0.10;;;;;;;;;;5002412;28;20128;-88
2023/09/13 12:12:44;;;;;;;0.10;0.10;;;;;;;;;;5018608;28;20048;-88
2023/09/13 12:15:14;;;;;;;0.10;0.10;;;;;;;;;;5036235;28;20049;-90
2023/09/13 12:17:40;;;;;;;0.10;0.10;;;;;;;;;;5003180;28;20509;-87
2023/09/13 12:20:06;;;;;;;0.10;0.10;;;;;;;;;;5001793;28;20049;-88
2023/09/13 12:22:41;;;;;;;0.10;0.10;;;;;;;;;;5018161;28;20266;-89
2023/09/13 12:25:11;;;;;;;0.10;0.10;;;;;;;;;;5002004;28;20043;-88
2023/09/13 12:27:37;;;;;;;0.10;0.10;;;;;;;;;;5034342;28;20037;-88
2023/09/13 12:30:07;;;;;;;0.10;0.10;;;;;;;;;;5001968;28;20055;-90
2023/09/13 12:32:33;;;;;;;0.10;0.10;;;;;;;;;;5035168;28;20092;-88
2023/09/13 12:34:59;;;;;;;0.10;0.10;;;;;;;;;;5018271;28;20481;-89
2023/09/13 12:37:25;;;;;;;0.13;0.13;;;;;;;;;;5017994;28;20077;-89
2023/09/13 12:39:51;;;;;;;0.10;0.10;;;;;;;;;;5034569;28;20093;-89
2023/09/13 12:42:18;;;;;;;0.10;0.10;;;;;;;;;;5017922;28;20045;-90
2023/09/13 12:44:47;;;;;;;0.85;0.10;;;;;;;;;;5018398;28;20047;-90
2023/09/13 12:47:16;;;;;;;0.20;0.20;;;;;;;;;;5018872;28;20041;-89
2023/09/13 12:49:42;;;;;;;0.10;0.10;;;;;;;;;;5018305;28;20468;-90
2023/09/13 12:52:08;;;;;;;0.10;0.10;;;;;;;;;;5018387;28;20466;-88
2023/09/13 12:54:35;;;;;;;0.10;0.10;;;;;;;;;;5001677;28;20084;-91
2023/09/13 12:57:04;;;;;;;0.10;0.10;;;;;;;;;;5001664;28;20132;-90
2023/09/13 12:59:42;;;;;;;0.10;0.10;;;;;;;;;;5001563;28;20492;-89
2023/09/13 13:02:18;;;;;;;0.10;0.10;;;;;;;;;;5017603;28;20052;-91
2023/09/13 13:04:44;;;;;;;0.10;0.10;;;;;;;;;;5001441;28;20500;-90
2023/09/13 13:07:10;;;;;;;0.10;0.10;;;;;;;;;;5001747;28;20068;-90
2023/09/13 13:09:36;;;;;;;0.13;0.13;;;;;;;;;;5001837;28;20044;-89
2023/09/13 13:12:02;;;;;;;0.10;0.10;;;;;;;;;;5018203;28;20045;-90
2023/09/13 13:14:31;;;;;;;0.10;0.10;;;;;;;;;;5001207;28;20042;-90
2023/09/13 13:16:58;;;;;;;0.10;0.10;;;;;;;;;;5033935;28;20041;-91
2023/09/13 13:19:31;;;;;;;0.10;0.10;;;;;;;;;;5001281;28;20053;-90
2023/09/13 13:21:57;;;;;;;0.10;0.10;;;;;;;;;;5001413;28;20042;-90
2023/09/13 13:24:24;;;;;;;0.10;0.10;;;;;;;;;;5017698;28;20056;-90
2023/09/13 13:26:51;;;;;;;0.10;0.10;;;;;;;;;;5017517;28;20038;-90
2023/09/13 13:29:17;;;;;;;0.10;0.10;;;;;;;;;;5000911;28;20044;-91
2023/09/13 13:31:43;;;;;;;0.10;0.10;;;;;;;;;;5001278;28;20037;-90
2023/09/13 13:34:09;;;;;;;0.10;0.10;;;;;;;;;;5001682;28;20103;-93
2023/09/13 13:36:36;;;;;;;0.10;0.10;;;;;;;;;;5019165;28;20041;-92
2023/09/13 13:39:05;;;;;;;0.10;0.10;;;;;;;;;;5001768;28;20041;-92
2023/09/13 13:41:31;;;;;;;0.10;0.10;;;;;;;;;;5002265;28;20619;-92
2023/09/13 13:43:59;;;;;;;0.10;0.10;;;;;;;;;;5001378;28;20128;-92
2023/09/13 13:46:28;;;;;;;0.10;0.10;;;;;;;;;;5019163;28;20041;-92
2023/09/13 13:48:54;;;;;;;0.10;0.10;;;;;;;;;;5002027;28;20520;-92
2023/09/13 13:51:21;;;;;;;0.10;0.10;;;;;;;;;;5004650;28;20077;-94
2023/09/13 13:53:49;;;;;;;0.10;0.10;;;;;;;;;;5017145;28;20516;-93
2023/09/13 13:56:15;;;;;;;0.10;0.10;;;;;;;;;;5001063;28;20052;-94
2023/09/13 13:58:42;;;;;;;0.10;0.10;;;;;;;;;;5000728;28;20041;-94
2023/09/13 14:01:07;;;;;;;0.10;0.10;;;;;;;;;;5017215;28;20041;-94
2023/09/13 14:03:33;;;;;;;0.10;0.10;;;;;;;;;;5000580;28;20045;-94
2023/09/13 14:06:03;;;;;;;0.10;0.10;;;;;;;;;;5017294;28;20037;-95
2023/09/13 14:08:29;;;;;;;0.10;0.10;;;;;;;;;;5033677;28;20049;-94
2023/09/13 14:10:55;;;;;;;0.10;0.10;;;;;;;;;;5000134;28;20124;-93
2023/09/13 14:13:21;;;;;;;0.10;0.10;;;;;;;;;;5016531;28;20042;-93
2023/09/13 14:15:47;;;;;;;0.10;0.10;;;;;;;;;;5000351;28;20123;-91
2023/09/13 14:18:13;;;;;;;0.10;0.10;;;;;;;;;;4999224;28;20045;-92
2023/09/13 14:20:43;;;;;;;0.10;0.10;;;;;;;;;;4999572;28;20100;-92
2023/09/13 14:23:10;;;;;;;0.10;0.10;;;;;;;;;;5000392;28;20119;-92
2023/09/13 14:25:35;;;;;;;0.10;0.10;;;;;;;;;;4999732;28;20041;-92
2023/09/13 14:28:05;;;;;;;0.10;0.10;;;;;;;;;;5016188;28;20398;-93
2023/09/13 14:30:34;;;;;;;0.10;0.10;;;;;;;;;;5001519;28;20052;-96
2023/09/13 14:33:06;;;;;;;0.10;0.10;;;;;;;;;;5005232;28;20139;-93
2023/09/13 14:35:32;;;;;;;0.10;0.10;;;;;;;;;;5001513;28;20139;-93
2023/09/13 14:37:58;;;;;;;0.10;0.10;;;;;;;;;;5001585;28;20041;-87
2023/09/13 14:40:24;;;;;;;0.10;0.10;;;;;;;;;;4999191;28;20526;-87
2023/09/13 14:42:51;;;;;;;0.10;0.10;;;;;;;;;;5015676;28;20076;-86